GDY weather

Grundy Municipal Airport
Grundy, Virginia, United States

Public forecast

Using degrees Fahrenheit for public forecast. Weather courtesy of forecast.io.

METAR (pilot weather report)

Closest report is Tazewell County Airport, 18.6 nm (34.5 km) ESE. Retrieved 2019/07/17 12:30 UTC (0 seconds ago):

KJFZ 171230Z AUTO 23008KT 10SM SCT031 BKN120 24/18 A3017 RMK AO2 T02410184

TAF (pilot weather forecast)

Closest forecast is Mercer County Airport, 44.0 nm (81.5 km) E. Retrieved 2019/07/17 12:30 UTC (0 seconds ago):

TAF KBLF 171127Z 1712/1812 23003KT P6SM SCT250 FM171700 23010G18KT P6SM VCTS SCT030CB BKN060 TEMPO 1719/1721 4SM TSRA BKN025CB FM180100 24008KT P6SM VCSH SCT015 BKN030 FM180600 26006KT 5SM BR BKN012